createdAt,value
2018-03-17T00:00:30.588Z,0
2018-03-17T00:01:11.119Z,0
2018-03-17T00:01:51.629Z,0
2018-03-17T00:02:32.140Z,0
2018-03-17T00:03:12.675Z,0
2018-03-17T00:03:53.209Z,0
2018-03-17T00:04:33.704Z,0
2018-03-17T00:05:14.228Z,0
2018-03-17T00:05:54.757Z,0
2018-03-17T00:06:35.285Z,0
2018-03-17T00:07:15.776Z,0
2018-03-17T00:07:56.274Z,0
2018-03-17T00:08:36.791Z,0
2018-03-17T00:09:17.305Z,0
2018-03-17T00:09:57.824Z,0
2018-03-17T00:10:38.341Z,0
2018-03-17T00:11:18.866Z,0
2018-03-17T00:11:59.404Z,0
2018-03-17T00:12:39.935Z,0
2018-03-17T00:13:20.436Z,0
2018-03-17T00:14:00.956Z,0
2018-03-17T00:14:41.473Z,0
2018-03-17T00:15:22.000Z,0
2018-03-17T00:16:02.525Z,0
2018-03-17T00:16:43.044Z,0
2018-03-17T00:17:23.557Z,0
2018-03-17T00:18:04.082Z,0
2018-03-17T00:18:44.607Z,0
2018-03-17T00:19:25.129Z,0
2018-03-17T00:20:05.630Z,0
2018-03-17T00:20:46.147Z,0
2018-03-17T00:21:26.674Z,0
2018-03-17T00:22:07.194Z,0
2018-03-17T00:22:47.713Z,0
2018-03-17T00:23:28.247Z,0
2018-03-17T00:24:08.749Z,0
2018-03-17T00:24:49.336Z,0
2018-03-17T00:25:29.815Z,0
2018-03-17T00:26:10.330Z,0
2018-03-17T00:26:50.857Z,0
2018-03-17T00:27:31.381Z,0
2018-03-17T00:28:11.895Z,0
2018-03-17T00:28:52.409Z,0
2018-03-17T00:29:32.927Z,0
2018-03-17T00:30:13.454Z,0
2018-03-17T00:30:53.968Z,0
2018-03-17T00:31:34.478Z,0
2018-03-17T00:32:14.987Z,0
2018-03-17T00:32:55.509Z,0
2018-03-17T00:33:36.765Z,0
2018-03-17T00:34:17.273Z,0
2018-03-17T00:34:57.813Z,0
2018-03-17T00:35:38.327Z,0
2018-03-17T00:36:18.847Z,0
2018-03-17T00:36:59.376Z,0
2018-03-17T00:37:39.884Z,0
2018-03-17T00:38:20.407Z,0
2018-03-17T00:39:00.909Z,0
2018-03-17T00:39:41.424Z,0
2018-03-17T00:40:21.952Z,0
2018-03-17T00:41:02.464Z,0
2018-03-17T00:41:42.981Z,0
2018-03-17T00:42:23.502Z,0
2018-03-17T00:43:04.005Z,0
2018-03-17T00:43:44.529Z,0
2018-03-17T00:44:25.066Z,0
2018-03-17T00:45:05.570Z,0
2018-03-17T00:45:46.073Z,0
2018-03-17T00:46:26.627Z,0
2018-03-17T00:47:07.133Z,0
2018-03-17T00:47:47.670Z,0
2018-03-17T00:48:28.191Z,0
2018-03-17T00:49:08.724Z,0
2018-03-17T00:49:49.243Z,0
2018-03-17T00:50:29.776Z,0
2018-03-17T00:51:10.298Z,0
2018-03-17T00:51:50.814Z,0
2018-03-17T00:52:31.330Z,0
2018-03-17T00:53:11.838Z,0
2018-03-17T00:53:52.359Z,0
2018-03-17T00:54:32.868Z,0
2018-03-17T00:55:13.383Z,0
2018-03-17T00:55:53.895Z,0
2018-03-17T00:56:34.407Z,0
2018-03-17T00:57:14.929Z,0
2018-03-17T00:57:55.444Z,0
2018-03-17T00:58:35.958Z,0
2018-03-17T00:59:16.479Z,0
2018-03-17T00:59:57.001Z,0
2018-03-17T01:00:37.525Z,0
2018-03-17T01:01:18.039Z,0
2018-03-17T01:01:58.554Z,0
2018-03-17T01:02:39.079Z,0
2018-03-17T01:03:19.571Z,0
2018-03-17T01:04:00.094Z,0
2018-03-17T01:04:40.615Z,0
2018-03-17T01:05:21.133Z,0
2018-03-17T01:06:01.679Z,0
2018-03-17T01:06:42.176Z,0
2018-03-17T01:07:22.679Z,0
2018-03-17T01:08:03.210Z,0
2018-03-17T01:08:43.744Z,0
2018-03-17T01:09:24.249Z,0
2018-03-17T01:10:04.771Z,0
2018-03-17T01:10:45.276Z,0
2018-03-17T01:11:25.841Z,0
2018-03-17T01:12:06.353Z,0
2018-03-17T01:12:46.869Z,0
2018-03-17T01:13:27.382Z,0
2018-03-17T01:14:07.915Z,0
2018-03-17T01:14:48.431Z,0
2018-03-17T01:15:28.947Z,0
2018-03-17T01:16:09.464Z,0
2018-03-17T01:16:49.988Z,0
2018-03-17T01:17:30.490Z,0
2018-03-17T01:18:11.022Z,0
2018-03-17T01:18:51.534Z,0
2018-03-17T01:19:32.063Z,0
2018-03-17T01:20:12.580Z,0
2018-03-17T01:20:53.093Z,0
2018-03-17T01:21:33.598Z,0
2018-03-17T01:22:14.124Z,0
2018-03-17T01:22:54.624Z,0
2018-03-17T01:23:35.162Z,0
2018-03-17T01:24:15.663Z,0
2018-03-17T01:24:56.177Z,0
2018-03-17T01:25:36.687Z,0
2018-03-17T01:26:17.209Z,0
2018-03-17T01:26:57.718Z,0
2018-03-17T01:27:38.236Z,0
2018-03-17T01:28:18.755Z,0
2018-03-17T01:28:59.257Z,0
2018-03-17T01:29:39.768Z,0
2018-03-17T01:30:20.281Z,0
2018-03-17T01:31:00.827Z,0
2018-03-17T01:31:41.311Z,0
2018-03-17T01:32:21.874Z,0
2018-03-17T01:33:02.385Z,0
2018-03-17T01:33:42.890Z,0
2018-03-17T01:34:23.400Z,0
2018-03-17T01:35:03.902Z,0
2018-03-17T01:35:44.432Z,0
2018-03-17T01:36:24.969Z,0
2018-03-17T01:37:05.485Z,0
2018-03-17T01:37:46.020Z,0
2018-03-17T01:38:26.507Z,0
2018-03-17T01:39:07.008Z,0
2018-03-17T01:39:47.540Z,0
2018-03-17T01:40:28.049Z,0
2018-03-17T01:41:08.573Z,0
2018-03-17T01:41:49.104Z,0
2018-03-17T01:42:29.615Z,0
2018-03-17T01:43:10.126Z,0
2018-03-17T01:43:50.657Z,0
2018-03-17T01:44:31.167Z,0
2018-03-17T01:45:11.681Z,0
2018-03-17T01:45:52.204Z,0
2018-03-17T01:46:32.705Z,0
2018-03-17T01:47:13.213Z,0
2018-03-17T01:47:53.758Z,0
2018-03-17T01:48:34.270Z,0
2018-03-17T01:49:14.764Z,0
2018-03-17T01:49:55.286Z,0
2018-03-17T01:50:35.789Z,0
2018-03-17T01:51:16.360Z,0
2018-03-17T01:51:56.893Z,0
2018-03-17T01:52:37.377Z,0
2018-03-17T01:53:17.894Z,0
2018-03-17T01:53:58.405Z,0
2018-03-17T01:54:38.934Z,0
2018-03-17T01:55:19.452Z,0
2018-03-17T01:55:59.977Z,0
2018-03-17T01:56:40.521Z,0
2018-03-17T01:57:21.037Z,0
2018-03-17T01:58:01.563Z,0
2018-03-17T01:58:42.059Z,0
2018-03-17T01:59:22.581Z,0
2018-03-17T02:00:03.099Z,0
2018-03-17T02:00:43.629Z,0
2018-03-17T02:01:24.123Z,0
2018-03-17T02:02:04.644Z,0
2018-03-17T02:02:45.139Z,0
2018-03-17T02:03:25.660Z,0
2018-03-17T02:04:06.178Z,0
2018-03-17T02:04:46.699Z,0
2018-03-17T02:05:27.211Z,0
2018-03-17T02:06:07.728Z,0
2018-03-17T02:06:48.259Z,0
2018-03-17T02:07:28.789Z,0
2018-03-17T02:08:09.298Z,0
2018-03-17T02:08:49.815Z,0
2018-03-17T02:09:30.326Z,0
2018-03-17T02:10:10.828Z,0
2018-03-17T02:10:51.354Z,0
2018-03-17T02:11:31.856Z,0
2018-03-17T02:12:12.373Z,0
2018-03-17T02:12:52.877Z,0
2018-03-17T02:13:33.404Z,0
2018-03-17T02:14:13.946Z,0
2018-03-17T02:14:54.441Z,0
2018-03-17T02:15:34.966Z,0
2018-03-17T02:16:15.488Z,0
2018-03-17T02:16:56.045Z,0
2018-03-17T02:17:36.563Z,0
2018-03-17T02:18:17.157Z,0
2018-03-17T02:18:57.656Z,0
2018-03-17T02:19:38.182Z,0
2018-03-17T02:20:18.685Z,0
2018-03-17T02:20:59.205Z,0
2018-03-17T02:21:39.717Z,0
2018-03-17T02:22:20.219Z,0
2018-03-17T02:23:00.743Z,0
2018-03-17T02:23:41.257Z,0
2018-03-17T02:24:21.772Z,0
2018-03-17T02:25:02.297Z,0
2018-03-17T02:25:42.820Z,0
2018-03-17T02:26:23.334Z,0
2018-03-17T02:27:03.854Z,0
2018-03-17T02:27:44.377Z,0
2018-03-17T02:28:24.898Z,0
2018-03-17T02:29:05.406Z,0
2018-03-17T02:29:45.946Z,0
2018-03-17T02:30:26.480Z,0
2018-03-17T02:31:07.014Z,0
2018-03-17T02:31:47.540Z,0
2018-03-17T02:32:28.056Z,0
2018-03-17T02:33:08.585Z,0
2018-03-17T02:33:49.089Z,0
2018-03-17T02:34:29.607Z,0
2018-03-17T02:35:10.120Z,0
2018-03-17T02:35:50.644Z,0
2018-03-17T02:36:31.153Z,0
2018-03-17T02:37:11.695Z,0
2018-03-17T02:37:52.258Z,0
2018-03-17T02:38:32.756Z,0
2018-03-17T02:39:13.266Z,0
2018-03-17T02:39:53.788Z,0
2018-03-17T02:40:34.296Z,0
2018-03-17T02:41:14.828Z,0
2018-03-17T02:41:55.359Z,0
2018-03-17T02:42:35.873Z,0
2018-03-17T02:43:16.450Z,0
2018-03-17T02:43:56.902Z,0
2018-03-17T02:44:37.419Z,0
2018-03-17T02:45:17.970Z,0
2018-03-17T02:45:58.504Z,0
2018-03-17T02:46:39.008Z,0
2018-03-17T02:47:19.531Z,0
2018-03-17T02:48:00.045Z,0
2018-03-17T02:48:40.580Z,0
2018-03-17T02:49:21.089Z,0
2018-03-17T02:50:01.624Z,0
2018-03-17T02:50:42.195Z,0
2018-03-17T02:51:22.704Z,0
2018-03-17T02:52:03.223Z,0
2018-03-17T02:52:43.736Z,0
2018-03-17T02:53:24.260Z,0
2018-03-17T02:54:04.733Z,0
2018-03-17T02:54:45.252Z,0
2018-03-17T02:55:25.722Z,0
2018-03-17T02:56:06.232Z,0
2018-03-17T02:56:46.771Z,0
2018-03-17T02:57:27.265Z,0
2018-03-17T02:58:07.795Z,0
2018-03-17T02:58:48.323Z,0
2018-03-17T02:59:28.827Z,0
2018-03-17T03:00:09.335Z,0
2018-03-17T03:00:49.868Z,0
2018-03-17T03:01:30.369Z,0
2018-03-17T03:02:10.838Z,0
2018-03-17T03:02:51.338Z,0
2018-03-17T03:03:31.836Z,0
2018-03-17T03:04:12.333Z,0
2018-03-17T03:04:52.828Z,0
2018-03-17T03:05:33.330Z,0
2018-03-17T03:06:13.827Z,0
2018-03-17T03:06:54.379Z,0
2018-03-17T03:07:34.873Z,0
2018-03-17T03:08:15.384Z,0
2018-03-17T03:08:55.908Z,0
2018-03-17T03:09:36.430Z,0
2018-03-17T03:10:16.948Z,0
2018-03-17T03:10:57.457Z,0
2018-03-17T03:11:38.018Z,0
2018-03-17T03:12:18.511Z,0
2018-03-17T03:12:59.031Z,0
2018-03-17T03:13:39.541Z,0
2018-03-17T03:14:20.046Z,0
2018-03-17T03:15:00.561Z,0
2018-03-17T03:15:41.081Z,0
2018-03-17T03:16:21.596Z,0
2018-03-17T03:17:02.108Z,0
2018-03-17T03:17:42.623Z,0
2018-03-17T03:18:23.136Z,0
2018-03-17T03:19:03.650Z,0
2018-03-17T03:19:44.170Z,0
2018-03-17T03:20:24.680Z,0
2018-03-17T03:21:05.215Z,0
2018-03-17T03:21:45.717Z,0
2018-03-17T03:22:26.238Z,0
2018-03-17T03:23:06.752Z,0
2018-03-17T03:23:47.624Z,0
2018-03-17T03:24:28.480Z,0
2018-03-17T03:25:09.201Z,0
2018-03-17T03:25:49.842Z,0
2018-03-17T03:26:30.468Z,0
2018-03-17T03:27:11.513Z,0
2018-03-17T03:27:52.702Z,0
2018-03-17T03:28:33.051Z,0
2018-03-17T03:29:13.515Z,0
2018-03-17T03:29:54.025Z,0
2018-03-17T03:30:34.545Z,0
2018-03-17T03:31:15.069Z,0
2018-03-17T03:31:55.576Z,0
2018-03-17T03:32:36.091Z,0
2018-03-17T03:33:16.623Z,0
2018-03-17T03:33:57.146Z,0
2018-03-17T03:34:37.666Z,0
2018-03-17T03:35:18.182Z,0
2018-03-17T03:35:58.695Z,0
2018-03-17T03:36:39.227Z,0
2018-03-17T03:37:19.750Z,0
2018-03-17T03:38:00.271Z,0
2018-03-17T03:38:40.793Z,0
2018-03-17T03:39:21.330Z,0
2018-03-17T03:40:01.820Z,0
2018-03-17T03:40:42.332Z,0
2018-03-17T03:41:22.851Z,0
2018-03-17T03:42:03.360Z,0
2018-03-17T03:42:43.879Z,0
2018-03-17T03:43:24.387Z,0
2018-03-17T03:44:04.882Z,0
2018-03-17T03:44:45.458Z,0
2018-03-17T03:45:25.969Z,0
2018-03-17T03:46:06.495Z,0
2018-03-17T03:46:46.991Z,0
2018-03-17T03:47:27.507Z,0
2018-03-17T03:48:08.016Z,0
2018-03-17T03:48:48.534Z,0
2018-03-17T03:49:29.052Z,0
2018-03-17T03:50:09.557Z,0
2018-03-17T03:50:50.087Z,0
2018-03-17T03:51:30.597Z,0
2018-03-17T03:52:11.115Z,0
2018-03-17T03:52:51.628Z,0
2018-03-17T03:53:32.150Z,0
2018-03-17T03:54:12.657Z,0
2018-03-17T03:54:53.186Z,0
2018-03-17T03:55:33.701Z,0
2018-03-17T03:56:14.223Z,0
2018-03-17T03:56:54.736Z,0
2018-03-17T03:57:35.236Z,0
2018-03-17T03:58:15.753Z,0
2018-03-17T03:58:56.279Z,0
2018-03-17T03:59:36.806Z,0
2018-03-17T04:00:17.311Z,0
2018-03-17T04:00:57.817Z,0
2018-03-17T04:01:38.326Z,0
2018-03-17T04:02:18.859Z,0
2018-03-17T04:02:59.375Z,0
2018-03-17T04:03:39.893Z,0
2018-03-17T04:04:20.395Z,0
2018-03-17T04:05:00.892Z,0
2018-03-17T04:05:41.406Z,0
2018-03-17T04:06:21.922Z,0
2018-03-17T04:07:02.440Z,0
2018-03-17T04:07:42.958Z,0
2018-03-17T04:08:23.472Z,0
2018-03-17T04:09:03.986Z,0
2018-03-17T04:09:44.507Z,0
2018-03-17T04:10:25.025Z,0
2018-03-17T04:11:05.540Z,0
2018-03-17T04:11:46.053Z,0
2018-03-17T04:12:26.572Z,0
2018-03-17T04:13:07.100Z,0
2018-03-17T04:13:47.613Z,0
2018-03-17T04:14:28.119Z,0
2018-03-17T04:15:08.636Z,0
2018-03-17T04:15:49.146Z,0
2018-03-17T04:16:29.668Z,0
2018-03-17T04:17:10.170Z,0
2018-03-17T04:17:50.695Z,0
2018-03-17T04:18:31.277Z,0
2018-03-17T04:19:11.792Z,0
2018-03-17T04:19:52.314Z,0
2018-03-17T04:20:32.858Z,0
2018-03-17T04:21:13.357Z,0
2018-03-17T04:21:53.875Z,0
2018-03-17T04:22:34.406Z,0
2018-03-17T04:23:14.928Z,0
2018-03-17T04:23:55.456Z,0
2018-03-17T04:24:35.968Z,0
2018-03-17T04:25:16.491Z,0
2018-03-17T04:25:56.986Z,0
2018-03-17T04:26:37.516Z,0
2018-03-17T04:27:18.067Z,0
2018-03-17T04:27:58.566Z,0
2018-03-17T04:28:39.085Z,0
2018-03-17T04:29:19.612Z,0
2018-03-17T04:30:00.107Z,0
2018-03-17T04:30:40.632Z,0
2018-03-17T04:31:21.164Z,0
2018-03-17T04:32:01.661Z,0
2018-03-17T04:32:42.182Z,0
2018-03-17T04:33:22.708Z,0
2018-03-17T04:34:03.246Z,0
2018-03-17T04:34:43.760Z,0
2018-03-17T04:35:24.296Z,0
2018-03-17T04:36:04.812Z,0
2018-03-17T04:36:45.334Z,0
2018-03-17T04:37:25.862Z,0
2018-03-17T04:38:06.355Z,0
2018-03-17T04:38:46.869Z,0
2018-03-17T04:39:27.398Z,0
2018-03-17T04:40:07.914Z,0
2018-03-17T04:40:48.409Z,0
2018-03-17T04:41:28.918Z,0
2018-03-17T04:42:09.448Z,0
2018-03-17T04:42:49.952Z,0
2018-03-17T04:43:30.488Z,0
2018-03-17T04:44:11.006Z,0
2018-03-17T04:44:51.530Z,0
2018-03-17T04:45:32.040Z,0
2018-03-17T04:46:12.543Z,0
2018-03-17T04:46:53.060Z,0
2018-03-17T04:47:33.566Z,0
2018-03-17T04:48:14.093Z,0
2018-03-17T04:48:54.598Z,0
2018-03-17T04:49:35.109Z,0
2018-03-17T04:50:15.640Z,0
2018-03-17T04:50:56.162Z,0
2018-03-17T04:51:36.681Z,0
2018-03-17T04:52:17.199Z,0
2018-03-17T04:52:57.735Z,0
2018-03-17T04:53:38.262Z,0
2018-03-17T04:54:18.793Z,0
2018-03-17T04:54:59.291Z,0
2018-03-17T04:55:39.802Z,0
2018-03-17T04:56:20.316Z,0
2018-03-17T04:57:00.833Z,0
2018-03-17T04:57:41.346Z,0
2018-03-17T04:58:21.859Z,0
2018-03-17T04:59:02.455Z,0
2018-03-17T04:59:42.978Z,0
2018-03-17T05:00:23.498Z,0
2018-03-17T05:01:04.008Z,0
2018-03-17T05:01:44.526Z,0
2018-03-17T05:02:25.057Z,0
2018-03-17T05:03:05.571Z,0
2018-03-17T05:03:46.082Z,0
2018-03-17T05:04:26.608Z,0
2018-03-17T05:05:07.120Z,0
2018-03-17T05:05:47.633Z,0
2018-03-17T05:06:28.151Z,0
2018-03-17T05:07:08.671Z,0
2018-03-17T05:07:49.206Z,0
2018-03-17T05:08:29.723Z,0
2018-03-17T05:09:10.251Z,0
2018-03-17T05:09:50.770Z,0
2018-03-17T05:10:31.270Z,0
2018-03-17T05:11:11.775Z,0
2018-03-17T05:11:52.285Z,0
2018-03-17T05:12:32.804Z,0
2018-03-17T05:13:13.316Z,0
2018-03-17T05:13:53.843Z,0
2018-03-17T05:14:34.348Z,0
2018-03-17T05:15:14.859Z,0
2018-03-17T05:15:55.385Z,0
2018-03-17T05:16:35.890Z,0
2018-03-17T05:17:16.429Z,0
2018-03-17T05:17:56.927Z,0
2018-03-17T05:18:37.452Z,0
2018-03-17T05:19:17.980Z,0
2018-03-17T05:19:58.492Z,0
2018-03-17T05:20:39.023Z,0
2018-03-17T05:21:19.573Z,0
2018-03-17T05:22:00.003Z,0
2018-03-17T05:22:40.522Z,0
2018-03-17T05:23:21.016Z,0
2018-03-17T05:24:01.622Z,0
2018-03-17T05:24:42.034Z,0
2018-03-17T05:25:22.526Z,0
2018-03-17T05:26:02.971Z,0
2018-03-17T05:26:43.490Z,0
2018-03-17T05:27:23.970Z,0
2018-03-17T05:28:04.496Z,0
2018-03-17T05:28:44.974Z,0
2018-03-17T05:29:25.414Z,0
2018-03-17T05:30:05.928Z,0
2018-03-17T05:30:46.371Z,0
2018-03-17T05:31:26.924Z,0
2018-03-17T05:32:07.376Z,0
2018-03-17T05:32:47.891Z,0
2018-03-17T05:33:28.388Z,0
2018-03-17T05:34:08.904Z,0
2018-03-17T05:34:49.438Z,0
2018-03-17T05:35:29.960Z,0
2018-03-17T05:36:10.441Z,0
2018-03-17T05:36:50.916Z,0
2018-03-17T05:37:31.496Z,0
2018-03-17T05:38:11.959Z,0
2018-03-17T05:38:52.477Z,0
2018-03-17T05:39:32.992Z,0
2018-03-17T05:40:13.508Z,0
2018-03-17T05:40:54.027Z,0
2018-03-17T05:41:34.548Z,0
2018-03-17T05:42:15.074Z,0
2018-03-17T05:42:55.574Z,0
2018-03-17T05:43:36.094Z,0
2018-03-17T05:44:16.707Z,0
2018-03-17T05:44:57.131Z,0
2018-03-17T05:45:37.648Z,0
2018-03-17T05:46:18.174Z,0
2018-03-17T05:46:58.701Z,0
2018-03-17T05:47:39.221Z,0
2018-03-17T05:48:19.740Z,0
2018-03-17T05:49:00.257Z,0
2018-03-17T05:49:40.789Z,0
2018-03-17T05:50:21.303Z,0
2018-03-17T05:51:01.825Z,0
2018-03-17T05:51:42.348Z,0
2018-03-17T05:52:22.866Z,0
2018-03-17T05:53:03.376Z,0
2018-03-17T05:53:43.901Z,0
2018-03-17T05:54:24.408Z,0
2018-03-17T05:55:04.926Z,0
2018-03-17T05:55:45.467Z,0
2018-03-17T05:56:26.003Z,0
2018-03-17T05:57:06.511Z,0
2018-03-17T05:57:47.045Z,0
2018-03-17T05:58:27.506Z,0
2018-03-17T05:59:08.004Z,0
2018-03-17T05:59:48.472Z,0
2018-03-17T06:00:28.967Z,0
2018-03-17T06:01:09.547Z,0
2018-03-17T06:01:50.043Z,0
2018-03-17T06:02:30.662Z,0
2018-03-17T06:03:11.090Z,0
2018-03-17T06:03:51.594Z,0
2018-03-17T06:04:32.135Z,5
2018-03-17T06:05:12.615Z,5
2018-03-17T06:05:53.063Z,5
2018-03-17T06:06:33.742Z,5
2018-03-17T06:07:14.110Z,5
2018-03-17T06:07:54.658Z,5
2018-03-17T06:08:35.208Z,5
2018-03-17T06:09:15.616Z,5
2018-03-17T06:09:56.130Z,5
2018-03-17T06:10:36.673Z,5
2018-03-17T06:11:17.190Z,5
2018-03-17T06:11:57.845Z,5
2018-03-17T06:12:38.371Z,5
2018-03-17T06:13:18.806Z,5
2018-03-17T06:13:59.396Z,5
2018-03-17T06:14:39.816Z,5
2018-03-17T06:15:20.335Z,5
2018-03-17T06:16:00.871Z,5
2018-03-17T06:16:41.306Z,5
2018-03-17T06:17:21.739Z,5
2018-03-17T06:18:02.320Z,5
2018-03-17T06:18:42.828Z,5
2018-03-17T06:19:23.562Z,5
2018-03-17T06:20:04.703Z,5
2018-03-17T06:20:45.171Z,10
2018-03-17T06:21:25.598Z,10
2018-03-17T06:22:06.045Z,10
2018-03-17T06:22:46.673Z,10
2018-03-17T06:23:27.082Z,10
2018-03-17T06:24:08.172Z,10
2018-03-17T06:24:48.512Z,10
2018-03-17T06:25:29.094Z,10
2018-03-17T06:26:09.551Z,10
2018-03-17T06:26:50.055Z,10
2018-03-17T06:27:30.587Z,10
2018-03-17T06:28:11.094Z,10
2018-03-17T06:28:51.629Z,10
2018-03-17T06:29:32.168Z,10
2018-03-17T06:30:12.671Z,10
2018-03-17T06:30:53.228Z,10
2018-03-17T06:31:33.648Z,10
2018-03-17T06:32:14.240Z,10
2018-03-17T06:32:54.970Z,10
2018-03-17T06:33:35.438Z,10
2018-03-17T06:34:15.898Z,10
2018-03-17T06:34:56.511Z,10
2018-03-17T06:35:36.913Z,10
2018-03-17T06:36:17.384Z,10
2018-03-17T06:36:57.873Z,15
2018-03-17T06:37:38.352Z,15
2018-03-17T06:38:18.873Z,15
2018-03-17T06:38:59.311Z,15
2018-03-17T06:39:39.789Z,15
2018-03-17T06:40:20.371Z,15
2018-03-17T06:41:00.834Z,15
2018-03-17T06:41:41.290Z,15
2018-03-17T06:42:21.751Z,15
2018-03-17T06:43:02.230Z,15
2018-03-17T06:43:42.803Z,15
2018-03-17T06:44:23.451Z,15
2018-03-17T06:45:03.917Z,15
2018-03-17T06:45:44.437Z,15
2018-03-17T06:46:24.866Z,15
2018-03-17T06:47:05.332Z,15
2018-03-17T06:47:45.869Z,15
2018-03-17T06:48:26.363Z,15
2018-03-17T06:49:06.781Z,15
2018-03-17T06:49:47.392Z,15
2018-03-17T06:50:27.804Z,15
2018-03-17T06:51:08.353Z,15
2018-03-17T06:51:48.750Z,15
2018-03-17T06:52:29.247Z,15
2018-03-17T06:53:09.767Z,15
2018-03-17T06:53:50.266Z,15
2018-03-17T06:54:30.710Z,15
2018-03-17T06:55:11.354Z,15
2018-03-17T06:55:51.739Z,15
2018-03-17T06:56:32.265Z,20
2018-03-17T06:57:12.741Z,20
2018-03-17T06:57:53.280Z,20
2018-03-17T06:58:33.848Z,20
2018-03-17T06:59:14.287Z,20
2018-03-17T06:59:54.744Z,20
2018-03-17T07:00:35.274Z,20
2018-03-17T07:01:15.747Z,20
2018-03-17T07:01:56.217Z,20
2018-03-17T07:02:36.712Z,20
2018-03-17T07:03:17.197Z,20
2018-03-17T07:03:57.688Z,20
2018-03-17T07:04:38.178Z,20
2018-03-17T07:05:18.668Z,20
2018-03-17T07:05:59.142Z,20
2018-03-17T07:06:39.627Z,20
2018-03-17T07:07:20.106Z,20
2018-03-17T07:08:00.616Z,20
2018-03-17T07:08:41.109Z,20
2018-03-17T07:09:21.606Z,20
2018-03-17T07:10:02.099Z,20
2018-03-17T07:10:42.559Z,20
2018-03-17T07:11:23.066Z,20
2018-03-17T07:12:03.546Z,20
2018-03-17T07:12:44.058Z,20
2018-03-17T07:13:24.516Z,20
2018-03-17T07:14:05.026Z,20
2018-03-17T07:14:45.498Z,20
2018-03-17T07:15:25.967Z,20
2018-03-17T07:16:06.517Z,20
2018-03-17T07:16:46.987Z,20
2018-03-17T07:17:27.431Z,20
2018-03-17T07:18:07.940Z,20
2018-03-17T07:18:48.419Z,20
2018-03-17T07:19:28.890Z,20
2018-03-17T07:20:09.349Z,20
2018-03-17T07:20:49.893Z,20
2018-03-17T07:21:30.371Z,20
2018-03-17T07:22:10.859Z,20
2018-03-17T07:22:51.366Z,20
2018-03-17T07:23:31.861Z,20
2018-03-17T07:24:12.312Z,20
2018-03-17T07:24:52.796Z,20
2018-03-17T07:25:33.277Z,20
2018-03-17T07:26:13.759Z,20
2018-03-17T07:26:54.238Z,20
2018-03-17T07:27:34.762Z,20
2018-03-17T07:28:15.227Z,25
2018-03-17T07:28:55.755Z,20
2018-03-17T07:29:36.245Z,25
2018-03-17T07:30:16.749Z,25
2018-03-17T07:30:57.176Z,25
2018-03-17T07:31:37.689Z,25
2018-03-17T07:32:18.176Z,25
2018-03-17T07:32:58.661Z,25
2018-03-17T07:33:39.123Z,25
2018-03-17T07:34:19.652Z,25
2018-03-17T07:35:00.184Z,25
2018-03-17T07:35:40.687Z,25
2018-03-17T07:36:21.193Z,25
2018-03-17T07:37:01.659Z,25
2018-03-17T07:37:42.142Z,25
2018-03-17T07:38:22.637Z,25
2018-03-17T07:39:03.154Z,25
2018-03-17T07:39:43.623Z,25
2018-03-17T07:40:24.106Z,25
2018-03-17T07:41:04.629Z,25
2018-03-17T07:41:45.169Z,25
2018-03-17T07:42:25.656Z,25
2018-03-17T07:43:06.141Z,25
2018-03-17T07:43:46.803Z,25
2018-03-17T07:44:27.273Z,25
2018-03-17T07:45:07.769Z,25
2018-03-17T07:45:48.271Z,25
2018-03-17T07:46:28.826Z,25
2018-03-17T07:47:09.173Z,25
2018-03-17T07:47:49.730Z,25
2018-03-17T07:48:30.230Z,30
2018-03-17T07:49:10.676Z,30
2018-03-17T07:49:51.153Z,30
2018-03-17T07:50:31.723Z,25
2018-03-17T07:51:12.317Z,25
2018-03-17T07:51:52.724Z,30
2018-03-17T07:52:33.239Z,30
2018-03-17T07:53:13.770Z,30
2018-03-17T07:53:54.243Z,30
2018-03-17T07:54:34.683Z,30
2018-03-17T07:55:15.264Z,30
2018-03-17T07:55:55.767Z,25
2018-03-17T07:56:36.200Z,25
2018-03-17T07:57:16.839Z,25
2018-03-17T07:57:57.190Z,25
2018-03-17T07:58:37.685Z,25
2018-03-17T07:59:18.278Z,25
2018-03-17T07:59:58.708Z,25
2018-03-17T08:00:39.206Z,25
2018-03-17T08:01:19.702Z,25
2018-03-17T08:02:00.164Z,30
2018-03-17T08:02:40.676Z,30
2018-03-17T08:03:21.086Z,30
2018-03-17T08:04:01.591Z,30
2018-03-17T08:04:42.100Z,30
2018-03-17T08:05:22.609Z,30
2018-03-17T08:06:03.131Z,30
2018-03-17T08:06:44.108Z,30
2018-03-17T08:07:24.679Z,30
2018-03-17T08:08:05.134Z,30
2018-03-17T08:08:45.688Z,30
2018-03-17T08:09:26.126Z,30
2018-03-17T08:10:06.584Z,35
2018-03-17T08:10:47.080Z,35
2018-03-17T08:11:27.660Z,35
2018-03-17T08:12:08.182Z,35
2018-03-17T08:12:48.754Z,35
2018-03-17T08:13:29.355Z,40
2018-03-17T08:14:09.829Z,40
2018-03-17T08:14:50.349Z,40
2018-03-17T08:15:31.021Z,40
2018-03-17T08:16:11.536Z,40
2018-03-17T08:16:52.107Z,40
2018-03-17T08:17:32.589Z,40
2018-03-17T08:18:13.127Z,40
2018-03-17T08:18:53.701Z,45
2018-03-17T08:19:34.228Z,45
2018-03-17T08:20:14.736Z,45
2018-03-17T08:20:55.140Z,45
2018-03-17T08:21:35.677Z,45
2018-03-17T08:22:16.249Z,45
2018-03-17T08:22:56.760Z,45
2018-03-17T08:23:37.265Z,45
2018-03-17T08:24:17.787Z,50
2018-03-17T08:24:58.342Z,50
2018-03-17T08:25:38.868Z,50
2018-03-17T08:26:19.390Z,50
2018-03-17T08:26:59.932Z,50
2018-03-17T08:27:40.551Z,50
2018-03-17T08:28:21.184Z,55
2018-03-17T08:29:01.686Z,55
2018-03-17T08:29:42.199Z,55
2018-03-17T08:30:22.718Z,50
2018-03-17T08:31:03.217Z,50
2018-03-17T08:31:43.764Z,50
2018-03-17T08:32:24.320Z,50
2018-03-17T08:33:04.775Z,50
2018-03-17T08:33:45.273Z,50
2018-03-17T08:34:25.811Z,50
2018-03-17T08:35:06.376Z,50
2018-03-17T08:35:46.914Z,50
2018-03-17T08:36:27.386Z,50
2018-03-17T08:37:07.873Z,55
2018-03-17T08:37:48.367Z,55
2018-03-17T08:38:28.863Z,55
2018-03-17T08:39:09.373Z,55
2018-03-17T08:39:49.898Z,55
2018-03-17T08:40:30.412Z,55
2018-03-17T08:41:10.924Z,55
2018-03-17T08:41:51.438Z,55
2018-03-17T08:42:31.931Z,55
2018-03-17T08:43:12.438Z,55
2018-03-17T08:43:52.956Z,55
2018-03-17T08:44:33.464Z,55
2018-03-17T08:45:13.952Z,50
2018-03-17T08:45:54.505Z,50
2018-03-17T08:46:34.990Z,50
2018-03-17T08:47:15.501Z,50
2018-03-17T08:47:55.988Z,50
2018-03-17T08:48:36.504Z,50
2018-03-17T08:49:17.101Z,50
2018-03-17T08:49:57.525Z,50
2018-03-17T08:50:38.057Z,45
2018-03-17T08:51:18.576Z,45
2018-03-17T08:51:59.086Z,45
2018-03-17T08:52:39.612Z,45
2018-03-17T08:53:20.179Z,45
2018-03-17T08:54:00.637Z,45
2018-03-17T08:54:41.140Z,45
2018-03-17T08:55:21.760Z,45
2018-03-17T08:56:02.173Z,45
2018-03-17T08:56:42.627Z,45
2018-03-17T08:57:23.205Z,45
2018-03-17T08:58:03.684Z,50
2018-03-17T08:58:44.453Z,50
2018-03-17T08:59:24.948Z,50
2018-03-17T09:00:05.406Z,50
2018-03-17T09:00:45.940Z,55
2018-03-17T09:01:26.475Z,55
2018-03-17T09:02:06.945Z,55
2018-03-17T09:02:47.480Z,55
2018-03-17T09:03:28.016Z,55
2018-03-17T09:04:08.556Z,55
2018-03-17T09:04:49.105Z,60
2018-03-17T09:05:29.588Z,60
2018-03-17T09:06:10.084Z,60
2018-03-17T09:06:50.658Z,60
2018-03-17T09:07:31.090Z,60
2018-03-17T09:08:11.594Z,60
2018-03-17T09:08:52.103Z,60
2018-03-17T09:09:32.614Z,60
2018-03-17T09:10:13.133Z,60
2018-03-17T09:10:53.647Z,65
2018-03-17T09:11:34.172Z,65
2018-03-17T09:12:14.710Z,65
2018-03-17T09:12:55.170Z,65
2018-03-17T09:13:35.652Z,65
2018-03-17T09:14:16.148Z,65
2018-03-17T09:14:56.634Z,65
2018-03-17T09:15:37.154Z,70
2018-03-17T09:16:17.638Z,65
2018-03-17T09:16:58.143Z,70
2018-03-17T09:17:38.638Z,75
2018-03-17T09:18:19.141Z,80
2018-03-17T09:18:59.649Z,85
2018-03-17T09:19:40.187Z,85
2018-03-17T09:20:20.719Z,90
2018-03-17T09:21:01.219Z,90
2018-03-17T09:21:41.713Z,95
2018-03-17T09:22:22.232Z,100
2018-03-17T09:23:02.796Z,100
2018-03-17T09:23:43.425Z,105
2018-03-17T09:24:23.945Z,105
2018-03-17T09:25:04.494Z,110
2018-03-17T09:25:44.961Z,110
2018-03-17T09:26:25.467Z,105
2018-03-17T09:27:05.962Z,105
2018-03-17T09:27:46.510Z,100
2018-03-17T09:28:27.008Z,100
2018-03-17T09:29:07.525Z,100
2018-03-17T09:29:48.042Z,95
2018-03-17T09:30:28.631Z,95
2018-03-17T09:31:09.146Z,100
2018-03-17T09:31:49.788Z,100
2018-03-17T09:32:30.247Z,95
2018-03-17T09:33:10.707Z,95
2018-03-17T09:33:51.241Z,95
2018-03-17T09:34:31.706Z,95
2018-03-17T09:35:12.290Z,100
2018-03-17T09:35:52.711Z,100
2018-03-17T09:36:33.206Z,105
2018-03-17T09:37:13.726Z,100
2018-03-17T09:37:54.245Z,100
2018-03-17T09:38:34.709Z,105
2018-03-17T09:39:15.206Z,110
2018-03-17T09:39:55.715Z,110
2018-03-17T09:40:37.154Z,110
2018-03-17T09:41:16.767Z,110
2018-03-17T09:41:57.213Z,115
2018-03-17T09:42:37.708Z,110
2018-03-17T09:43:18.223Z,115
2018-03-17T09:43:58.757Z,115
2018-03-17T09:44:39.268Z,115
2018-03-17T09:45:19.785Z,110
2018-03-17T09:46:00.291Z,105
2018-03-17T09:46:40.819Z,105
2018-03-17T09:47:21.384Z,105
2018-03-17T09:48:01.898Z,105
2018-03-17T09:48:42.429Z,105
2018-03-17T09:49:22.951Z,105
2018-03-17T09:50:03.464Z,110
2018-03-17T09:50:43.964Z,110